METAR Data
IDs: Format: Raw Decoded Include TAF

Data at: 0131 UTC 06 Dec 2019

KMOR 060115Z AUTO 06003KT 10SM CLR 04/M02 A3013 RMK A01
KMOR 060055Z AUTO 00000KT 10SM CLR 06/M02 A3013 RMK A01
KMOR 060035Z AUTO 00000KT 10SM CLR 06/M02 A3013 RMK A01
KMOR 060015Z AUTO 00000KT 10SM CLR 06/M02 A3013 RMK A01
KMOR 052355Z AUTO 00000KT CLR 07/M02 A3013 RMK A01
KMOR 052335Z AUTO 00000KT 10SM CLR 07/M02 A3013 RMK A01
KMOR 052315Z AUTO 00000KT 10SM CLR 08/M02 A3012 RMK A01
KMOR 052255Z AUTO 00000KT 10SM CLR 09/M03 A3012 RMK A01
KMOR 052235Z AUTO 00000KT 10SM CLR 11/M04 A3012 RMK A01
KMOR 052215Z AUTO 28003KT 10SM CLR 11/M04 A3012 RMK A01
KMOR 052155Z AUTO 27005KT 10SM CLR 12/M04 A3012 RMK A01
KMOR 052135Z AUTO 00000KT 10SM CLR 13/M03 A3012 RMK A01
KMOR 052115Z AUTO 28005KT 10SM CLR 13/M04 A3012 RMK A01
KMOR 052055Z AUTO 29005KT 10SM CLR 13/M04 A3012 RMK A01
KMOR 052035Z AUTO 27006KT 10SM CLR 13/M04 A3011 RMK A01
KMOR 052015Z AUTO 27008KT 240V300 10SM CLR 13/M04 A3011 RMK A01
KMOR 051955Z AUTO 26008KT 10SM CLR 13/M03 A3011 RMK A01
KMOR 051935Z AUTO 28008KT 10SM CLR 13/M02 A3011 RMK A01
KMOR 051915Z AUTO 27007KT 230V290 10SM CLR 12/M02 A3010 RMK A01
KMOR 051855Z AUTO 26006G11KT 10SM CLR 12/M03 A3011 RMK A01
KMOR 051835Z AUTO 30007KT 10SM CLR 12/M03 A3010 RMK A01
KMOR 051815Z AUTO 30008KT 280V340 10SM CLR 12/M02 A3011 RMK A01
KMOR 051755Z AUTO 29007KT 10SM CLR 11/M03 A3011 RMK A01
KMOR 051735Z AUTO 29007KT 260V340 10SM CLR 11/M02 A3012 RMK A01
KMOR 051715Z AUTO 27008KT 10SM CLR 10/M02 A3012 RMK A01
KMOR 051655Z AUTO VRB04KT 10SM CLR 10/M02 A3013 RMK A01
KMOR 051615Z AUTO 26006KT 10SM CLR 09/M01 A3013 RMK A01
KMOR 051555Z AUTO 24005KT 10SM CLR 09/M01 A3013 RMK A01
KMOR 051535Z AUTO VRB06KT 10SM CLR 09/M01 A3013 RMK A01
KMOR 051515Z AUTO 24005KT 10SM CLR 09/M01 A3012 RMK A01
KMOR 051455Z AUTO VRB04KT 10SM CLR 08/M01 A3011 RMK A01
KMOR 051435Z AUTO 20005KT 10SM CLR 08/M01 A3010 RMK A01
KMOR 051415Z AUTO VRB03KT 10SM CLR 07/M01 A3010 RMK A01
KMOR 051355Z AUTO 00000KT 10SM CLR 04/M01 A3009 RMK A01
KMOR 051335Z AUTO 00000KT 10SM CLR 03/M01 A3009 RMK A01
KMOR 051315Z AUTO 00000KT 10SM CLR 02/M03 A3009 RMK A01
KMOR 051255Z AUTO 00000KT 10SM CLR 02/M03 A3008 RMK A01
KMOR 051235Z AUTO 21004KT 10SM CLR 01/M03 A3007 RMK A01
KMOR 051215Z AUTO 21003KT 10SM CLR 00/M03 A3006 RMK A01
KMOR 051155Z AUTO 00000KT 10SM CLR 02/M03 A3005 RMK A01
KMOR 051135Z AUTO 21005KT 10SM CLR 00/M03 A3005 RMK A01
KMOR 051115Z AUTO 27005KT 10SM CLR 05/M03 A3004 RMK A01
KMOR 051055Z AUTO 28005KT 10SM CLR 05/M02 A3003 RMK A01
KMOR 051035Z AUTO 28006KT 10SM CLR 05/M03 A3003 RMK A01
KMOR 051015Z AUTO 27010KT 10SM CLR 05/M03 A3002 RMK A01
KMOR 050955Z AUTO 25008KT 10SM CLR 05/M03 A3002 RMK A01
KMOR 050935Z AUTO 24008KT 10SM CLR 04/M03 A3001 RMK A01
KMOR 050915Z AUTO 24007KT 10SM CLR 05/M03 A3001 RMK A01
KMOR 050855Z AUTO 24007KT 10SM CLR 04/M03 A3000 RMK A01
KMOR 050835Z AUTO 28005KT 10SM CLR 06/M02 A3000 RMK A01
KMOR 050810Z AUTO 29006KT 10SM CLR 06/M03 A2999 RMK A01
KMOR 050755Z AUTO 29006KT 10SM CLR 06/M03 A2999 RMK A01
KMOR 050735Z AUTO 29007KT 10SM CLR 06/M03 A2999 RMK A01
KMOR 050715Z AUTO 28006KT 10SM CLR 06/M03 A2998 RMK A01
KMOR 050655Z AUTO 29006KT 10SM CLR 06/M02 A2997 RMK A01
KMOR 050615Z AUTO 27005KT 10SM CLR 06/M03 A2996 RMK A01
KMOR 050555Z AUTO 27007KT 10SM CLR 07/M03 A2995 RMK A01
KMOR 050535Z AUTO 27006KT 10SM CLR 06/M03 A2995 RMK A01
KMOR 050515Z AUTO 27009KT 10SM CLR 07/M03 A2995 RMK A01
KMOR 050455Z AUTO 26008KT 10SM CLR 07/M03 A2995 RMK A01
KMOR 050435Z AUTO 25008KT 10SM CLR 07/M03 A2995 RMK A01
KMOR 050415Z AUTO 24007KT 10SM CLR 07/M03 A2994 RMK A01
KMOR 050355Z AUTO 25006KT 10SM CLR 07/M03 A2993 RMK A01
KMOR 050335Z AUTO 26006KT 10SM CLR 08/M03 A2993 RMK A01
KMOR 050315Z AUTO 26008KT 10SM CLR 08/M03 A2992 RMK A01
KMOR 050255Z AUTO 26007G12KT 10SM CLR 08/M03 A2992 RMK A01
KMOR 050235Z AUTO 26006KT 10SM CLR 07/M03 A2991 RMK A01
KMOR 050215Z AUTO 26005KT 10SM CLR 08/M03 A2990 RMK A01
KMOR 050155Z AUTO 25005G11KT 10SM CLR 08/M03 A2990 RMK A01
KMOR 050135Z AUTO 25007KT 10SM CLR 08/M03 A2989 RMK A01
KMOR 050115Z AUTO 25007G13KT 10SM CLR 08/M03 A2989 RMK A01
KMOR 050055Z AUTO 25007KT 10SM CLR 08/M03 A2988 RMK A01
KMOR 050035Z AUTO 25007KT 10SM CLR 08/M03 A2987 RMK A01
KMOR 050015Z AUTO 24008KT 10SM CLR 09/M02 A2987 RMK A01
KMOR 042355Z AUTO 24007KT 10SM CLR 09/M03 A2986 RMK A01
KMOR 042335Z AUTO 26008G13KT CLR 09/M01 A2985 RMK A01
KMOR 042315Z AUTO 27009G14KT 10SM CLR 09/M01 A2984 RMK A01
KMOR 042255Z AUTO 25007G12KT 10SM CLR 09/M01 A2983 RMK A01
KMOR 042235Z AUTO 25008G13KT 10SM CLR 10/M01 A2982 RMK A01
KMOR 042215Z AUTO 25009G14KT 10SM CLR 10/M01 A2982 RMK A01
KMOR 042155Z AUTO 25010G16KT 10SM CLR 10/M01 A2981 RMK A01
KMOR 042135Z AUTO 25012G18KT 10SM CLR 11/M01 A2981 RMK A01
KMOR 042115Z AUTO 26011G19KT 10SM CLR 11/M01 A2981 RMK A01
KMOR 042055Z AUTO 26010G18KT 10SM CLR 11/M01 A2980 RMK A01
KMOR 042035Z AUTO 26012G20KT 10SM CLR 11/M01 A2980 RMK A01
KMOR 042015Z AUTO 26016KT 10SM CLR 11/M01 A2980 RMK A01
KMOR 041955Z AUTO 25016KT 10SM CLR 11/M01 A2979 RMK A01
KMOR 041935Z AUTO 25013G20KT 10SM CLR 11/M01 A2979 RMK A01
KMOR 041915Z AUTO 26012G22KT 10SM CLR 10/M01 A2979 RMK A01
KMOR 041855Z AUTO 25011G18KT 10SM CLR 10/M01 A2979 RMK A01
KMOR 041835Z AUTO 25016G21KT 10SM CLR 10/M01 A2979 RMK A01
KMOR 041815Z AUTO 25014G22KT 10SM CLR 10/M01 A2980 RMK A01
KMOR 041755Z AUTO 26012G18KT 10SM CLR 09/M01 A2981 RMK A01
KMOR 041735Z AUTO 26014G20KT 10SM CLR 09/M00 A2981 RMK A01
KMOR 041715Z AUTO 24013KT 10SM CLR 09/M01 A2981 RMK A01
KMOR 041655Z AUTO 29014KT 10SM CLR 08/M00 A2982 RMK A01
KMOR 041635Z AUTO 27010G16KT 10SM CLR 08/01 A2983 RMK A01
KMOR 041615Z AUTO 26011G18KT 10SM CLR 08/00 A2983 RMK A01
KMOR 041555Z AUTO 26012KT 10SM CLR 07/01 A2983 RMK A01
KMOR 041535Z AUTO 26012KT 230V290 10SM CLR 06/01 A2984 RMK A01
KMOR 041515Z AUTO 25012KT 10SM CLR 06/00 A2984 RMK A01
KMOR 041455Z AUTO 26011KT 10SM CLR 05/00 A2984 RMK A01
KMOR 041435Z AUTO 25011G16KT 10SM CLR 04/00 A2984 RMK A01
KMOR 041415Z AUTO 25007KT 10SM CLR 03/M00 A2984 RMK A01
KMOR 041355Z AUTO 23005KT 10SM CLR 01/M01 A2984 RMK A01
KMOR 041335Z AUTO VRB04KT 10SM CLR 01/M01 A2984 RMK A01